Balsam, Minnesota
Current Conditions -  °F | °C
As of 10:25 AM on Saturday 25 Oct 2014 (Local Time) from KHZX Reporting Station
Clear Clear  
Wind Chill: 52°   Ceiling: Unl
Heat Index: 52°   Visibility: 10mi
Dew Point: 32°   Wind: 14mph
Humidity: 47%   Direction: 280°W
Pressure: 29.99"   Gusts: 18mph
Location:  46.6404°N, 93.1222°W
Report Text: KHZX 251525Z AUTO 28012G16KT 10SM CLR 11/00 A2999 RMK AO2
Loading
Personal Weather Stations






























Interactive Weather Map
Tropical Storm Tracking
New forecast layout! Learn more

10-Day Weather Forecast

Advertisements
Track Severe Weather on mobile